Time;durP1;ratioP1;P1;durP2;ratioP2;P2;SDS_P1;SDS_P2;PMS_P1;PMS_P2;Temp;Humidity;BMP_temperature;BMP_pressure;BME280_temperature;BME280_humidity;BME280_pressure;Samples;Min_cycle;Max_cycle;Signal;HPM_P1;HPM_P2
2021/12/23 00:01:13;;;;;;;59.72;28.98;;;;;;;1.02;49.68;95629.44;5032146;28;20025;-62
2021/12/23 00:03:38;;;;;;;56.38;28.55;;;;;;;1.01;49.69;95643.53;5032286;28;20057;-62
2021/12/23 00:06:03;;;;;;;58.30;27.98;;;;;;;0.64;49.52;95584.63;5031854;28;20116;-61
2021/12/23 00:08:29;;;;;;;54.78;27.25;;;;;;;0.38;49.72;95552.69;5031954;28;20482;-62
2021/12/23 00:10:54;;;;;;;52.95;26.50;;;;;;;0.89;49.43;95629.69;5013939;28;20038;-62
2021/12/23 00:13:20;;;;;;;50.88;27.02;;;;;;;0.61;49.51;95595.56;5032327;28;20071;-62
2021/12/23 00:23:51;;;;;;;39.33;21.23;;;;;;;0.51;49.81;95601.38;5031732;28;20116;-62
2021/12/23 00:26:17;;;;;;;42.55;21.83;;;;;;;0.48;49.63;95586.94;5011039;28;20507;-62
2021/12/23 00:28:42;;;;;;;44.60;23.23;;;;;;;0.47;49.35;95598.44;5012197;28;20026;-62
2021/12/23 00:31:07;;;;;;;41.88;22.08;;;;;;;0.27;49.26;95560.56;5011854;28;20034;-62
2021/12/23 00:33:36;;;;;;;39.65;21.35;;;;;;;0.57;49.40;95605.72;5012205;28;20033;-62
2021/12/23 00:36:04;;;;;;;40.42;20.42;;;;;;;0.51;49.47;95604.81;5014843;28;20115;-62
2021/12/23 00:38:35;;;;;;;31.98;19.52;;;;;;;0.64;49.29;95621.28;5030396;28;20036;-62
2021/12/23 00:41:03;;;;;;;40.50;20.65;;;;;;;0.52;49.24;95603.00;5030918;28;20018;-62
2021/12/23 00:43:32;;;;;;;33.92;18.48;;;;;;;0.41;48.94;95591.50;5031940;28;20053;-62
2021/12/23 00:45:59;;;;;;;36.03;18.92;;;;;;;0.57;48.96;95616.19;5013894;28;20047;-62
2021/12/23 00:48:25;;;;;;;33.30;18.92;;;;;;;0.54;48.98;95610.59;5013888;28;20026;-61
2021/12/23 00:50:50;;;;;;;34.33;19.23;;;;;;;0.54;49.05;95610.59;5013146;28;20033;-62
2021/12/23 00:53:19;;;;;;;33.10;18.05;;;;;;;0.51;48.94;95607.44;5025210;28;20399;-61
2021/12/23 00:55:49;;;;;;;34.35;18.08;;;;;;;0.34;48.86;95582.16;5031328;28;20108;-61
2021/12/23 00:58:15;;;;;;;35.20;18.35;;;;;;;0.50;48.87;95594.56;5013610;28;20128;-61
2021/12/23 01:00:41;;;;;;;35.95;17.33;;;;;;;0.51;48.90;95602.19;5013495;28;20464;-62
2021/12/23 01:03:06;;;;;;;33.17;17.63;;;;;;;0.50;48.83;95592.72;5031435;28;20545;-61
2021/12/23 01:05:32;;;;;;;33.72;17.50;;;;;;;0.20;48.90;95563.28;5013913;28;20026;-61
2021/12/23 01:07:57;;;;;;;32.75;16.85;;;;;;;-0.01;49.36;95547.13;5029923;28;20113;-61
2021/12/23 01:10:24;;;;;;;33.53;17.80;;;;;;;-0.08;49.39;95533.38;5030485;28;20029;-61
2021/12/23 01:12:57;;;;;;;26.75;16.20;;;;;;;0.44;49.49;95588.41;5031352;28;20040;-61
2021/12/23 01:17:57;;;;;;;26.25;17.13;;;;;;;0.63;49.25;95594.31;5031453;28;20116;-62
2021/12/23 01:20:33;;;;;;;30.85;17.15;;;;;;;0.65;48.84;95581.00;5012594;28;20581;-61
2021/12/23 01:23:02;;;;;;;34.13;17.83;;;;;;;0.80;48.88;95591.78;5031581;28;20045;-62
2021/12/23 01:25:28;;;;;;;25.70;16.02;;;;;;;0.60;49.19;95565.19;5029548;28;20132;-62
2021/12/23 01:27:54;;;;;;;31.67;18.38;;;;;;;0.84;48.86;95579.03;5030917;28;20117;-63
2021/12/23 01:30:21;;;;;;;31.77;17.02;;;;;;;0.97;48.68;95600.53;5030119;28;20086;-62
2021/12/23 01:32:48;;;;;;;28.98;16.60;;;;;;;0.66;48.72;95546.72;5030947;28;20094;-61
2021/12/23 01:35:15;;;;;;;29.98;17.33;;;;;;;0.38;48.43;95544.84;5030809;28;20056;-62
2021/12/23 01:37:40;;;;;;;26.23;16.48;;;;;;;-0.28;50.32;95598.25;5031172;28;20030;-61
2021/12/23 01:40:07;;;;;;;29.38;16.05;;;;;;;-0.56;50.80;95604.91;5010604;28;20103;-62
2021/12/23 01:42:33;;;;;;;29.38;16.38;;;;;;;-0.82;52.32;95600.84;5030289;28;20030;-61
2021/12/23 01:44:58;;;;;;;26.10;15.13;;;;;;;-1.83;54.63;95591.72;5012995;28;20029;-62
2021/12/23 01:47:24;;;;;;;33.58;17.05;;;;;;;-0.72;52.14;95604.72;5012812;28;20060;-62
2021/12/23 01:49:50;;;;;;;30.20;15.52;;;;;;;-0.69;52.17;95602.47;5012006;28;20036;-62
2021/12/23 01:52:16;;;;;;;27.33;15.38;;;;;;;-0.46;51.78;95578.25;5029889;28;20030;-63
2021/12/23 01:54:41;;;;;;;29.35;16.38;;;;;;;-0.18;51.09;95582.81;5011179;28;20038;-62
2021/12/23 01:57:08;;;;;;;28.33;16.05;;;;;;;-0.32;51.11;95591.88;5030348;28;20082;-62
2021/12/23 01:59:34;;;;;;;29.38;17.63;;;;;;;0.05;50.25;95570.78;5029668;28;20033;-62
2021/12/23 02:01:59;;;;;;;35.28;16.70;;;;;;;-0.39;51.19;95539.72;5030193;28;20037;-60
2021/12/23 02:04:25;;;;;;;27.00;16.88;;;;;;;0.04;50.62;95569.19;5030240;28;20029;-62
2021/12/23 02:06:50;;;;;;;32.30;18.08;;;;;;;-0.42;50.43;95545.38;5029612;28;20026;-61
2021/12/23 02:09:18;;;;;;;28.60;17.10;;;;;;;-0.38;50.91;95524.84;5027959;28;21191;-61
2021/12/23 02:11:44;;;;;;;31.92;17.45;;;;;;;-0.58;51.43;95541.59;5030163;28;20040;-61
2021/12/23 02:14:09;;;;;;;28.77;18.40;;;;;;;0.47;50.04;95568.84;5029972;28;20026;-61
2021/12/23 02:16:34;;;;;;;37.30;19.13;;;;;;;0.36;49.88;95573.06;5030066;28;20744;-61
2021/12/23 02:19:03;;;;;;;34.63;18.17;;;;;;;0.13;50.50;95533.84;5011734;28;20033;-61
2021/12/23 02:21:29;;;;;;;31.17;17.75;;;;;;;0.40;50.00;95531.53;5011912;28;20484;-61
2021/12/23 02:23:54;;;;;;;37.05;19.83;;;;;;;0.77;49.55;95537.28;5028326;28;20022;-62
2021/12/23 02:26:19;;;;;;;34.55;19.23;;;;;;;0.98;49.03;95551.56;5029865;28;20390;-62
2021/12/23 02:28:45;;;;;;;41.75;19.55;;;;;;;0.70;48.95;95494.69;5029449;28;20036;-62
2021/12/23 02:31:10;;;;;;;35.35;18.27;;;;;;;1.07;48.60;95541.47;5011836;28;20053;-62
2021/12/23 02:33:36;;;;;;;36.20;19.73;;;;;;;1.07;48.68;95544.09;5012129;28;20471;-62
2021/12/23 02:36:02;;;;;;;36.30;19.60;;;;;;;1.09;48.75;95536.81;5012055;28;20031;-62
2021/12/23 02:38:27;;;;;;;30.23;17.88;;;;;;;1.11;48.67;95532.13;5030047;28;20061;-62
2021/12/23 02:40:53;;;;;;;31.73;19.38;;;;;;;0.94;48.63;95495.41;5011201;28;20072;-62
2021/12/23 02:43:22;;;;;;;31.83;18.33;;;;;;;1.17;48.50;95515.47;5029621;28;20610;-62
2021/12/23 02:45:50;;;;;;;41.90;19.10;;;;;;;1.07;48.24;95505.59;5029671;28;20494;-62
2021/12/23 02:48:19;;;;;;;36.92;18.80;;;;;;;1.08;48.34;95501.16;5029326;28;20035;-62
2021/12/23 02:50:47;;;;;;;34.42;18.73;;;;;;;1.02;48.16;95480.13;5011529;28;20030;-62
2021/12/23 02:53:13;;;;;;;27.83;17.90;;;;;;;1.03;48.01;95491.41;5028108;28;20051;-62
2021/12/23 02:55:38;;;;;;;31.00;18.17;;;;;;;0.85;48.09;95457.53;5008425;28;20029;-61
2021/12/23 02:58:04;;;;;;;31.00;17.90;;;;;;;1.20;47.89;95505.31;5011795;28;20368;-62
2021/12/23 03:00:30;;;;;;;28.60;17.63;;;;;;;0.85;48.06;95439.19;5011194;28;20029;-62
2021/12/23 03:02:56;;;;;;;33.90;18.35;;;;;;;1.32;47.84;95504.44;5011488;28;20372;-62
2021/12/23 03:05:22;;;;;;;31.08;18.08;;;;;;;0.95;47.99;95448.03;5029377;28;20045;-62
2021/12/23 03:07:47;;;;;;;33.00;17.45;;;;;;;0.64;47.51;95478.09;5027788;28;20021;-61
2021/12/23 03:10:13;;;;;;;32.75;18.25;;;;;;;-0.11;50.88;95515.53;5010460;28;20099;-61
2021/12/23 03:12:38;;;;;;;38.95;18.23;;;;;;;0.22;49.68;95469.69;5011604;28;20472;-61
2021/12/23 03:15:04;;;;;;;37.10;18.92;;;;;;;0.60;49.50;95520.69;5029181;28;20082;-62
2021/12/23 03:17:30;;;;;;;39.83;18.58;;;;;;;0.37;49.57;95497.97;5010474;28;20048;-61
2021/12/23 03:19:56;;;;;;;33.85;17.95;;;;;;;0.54;49.56;95496.22;5010014;28;20025;-61
2021/12/23 03:22:22;;;;;;;37.15;19.17;;;;;;;0.75;49.21;95506.06;5010954;28;20034;-62
2021/12/23 03:24:47;;;;;;;31.48;17.90;;;;;;;0.71;48.98;95472.72;5009218;28;20029;-62
2021/12/23 03:27:13;;;;;;;37.05;19.65;;;;;;;0.59;49.03;95430.09;5029124;28;20025;-62
2021/12/23 03:29:38;;;;;;;34.42;17.85;;;;;;;0.84;48.60;95450.72;5028592;28;20472;-62
2021/12/23 03:32:04;;;;;;;35.05;19.23;;;;;;;1.13;48.18;95496.81;5029092;28;20029;-62
2021/12/23 03:34:29;;;;;;;36.88;19.55;;;;;;;1.03;48.09;95458.13;5011413;28;20088;-62
2021/12/23 03:36:55;;;;;;;35.08;19.83;;;;;;;0.83;47.94;95415.88;5028859;28;20383;-63
2021/12/23 03:39:21;;;;;;;40.35;19.83;;;;;;;1.23;47.98;95472.63;5026986;28;20026;-62
2021/12/23 03:41:47;;;;;;;33.50;18.73;;;;;;;0.89;47.83;95422.00;5009675;28;20064;-62
2021/12/23 03:44:14;;;;;;;34.45;18.88;;;;;;;1.25;48.21;95478.41;5011388;28;20137;-59
2021/12/23 03:46:39;;;;;;;36.40;20.05;;;;;;;1.24;47.83;95476.81;5011289;28;20021;-61
2021/12/23 03:49:06;;;;;;;40.00;19.42;;;;;;;1.21;47.78;95472.03;5028375;28;20388;-61
2021/12/23 03:51:32;;;;;;;34.90;19.30;;;;;;;1.05;47.82;95444.78;5011448;28;20083;-61
2021/12/23 03:53:57;;;;;;;32.92;17.48;;;;;;;0.80;47.96;95408.47;5028554;28;20640;-59
2021/12/23 03:56:23;;;;;;;35.80;18.80;;;;;;;0.51;47.82;95374.47;5010145;28;20032;-61
2021/12/23 03:58:48;;;;;;;34.20;19.83;;;;;;;0.75;48.15;95418.88;5011011;28;20017;-59
2021/12/23 04:01:14;;;;;;;33.33;18.05;;;;;;;0.87;48.07;95444.97;5011241;28;20185;-60
2021/12/23 04:03:43;;;;;;;37.05;19.77;;;;;;;0.29;48.38;95349.19;5030377;28;20044;-62
2021/12/23 04:06:08;;;;;;;33.72;18.75;;;;;;;0.92;48.23;95445.06;5032751;28;20025;-60
2021/12/23 04:08:34;;;;;;;31.00;17.85;;;;;;;0.40;48.05;95372.69;5031269;28;20040;-62
2021/12/23 04:11:00;;;;;;;32.80;18.08;;;;;;;0.22;47.66;95351.97;5031606;28;20025;-60
2021/12/23 04:13:26;;;;;;;35.85;18.58;;;;;;;0.23;48.31;95359.56;5032412;28;20472;-61
2021/12/23 04:15:52;;;;;;;32.50;19.38;;;;;;;0.22;47.99;95373.69;5032809;28;20033;-61
2021/12/23 04:18:18;;;;;;;36.03;19.83;;;;;;;-0.31;48.73;95326.84;5014564;28;20029;-61
2021/12/23 04:20:53;;;;;;;40.58;20.02;;;;;;;0.59;48.89;95451.81;5014201;28;20121;-61
2021/12/23 04:23:30;;;;;;;31.10;18.38;;;;;;;0.46;48.98;95416.28;5032079;28;20029;-60
2021/12/23 04:25:57;;;;;;;34.67;18.70;;;;;;;-0.21;48.55;95295.69;5024463;28;20031;-61
2021/12/23 04:28:23;;;;;;;32.33;17.92;;;;;;;0.68;48.59;95460.13;5032191;28;20049;-62
2021/12/23 04:30:49;;;;;;;37.55;18.52;;;;;;;0.63;48.20;95444.31;5031766;28;20018;-61
2021/12/23 04:33:15;;;;;;;37.33;18.80;;;;;;;-0.16;48.34;95298.41;5032295;28;20080;-61
2021/12/23 04:35:40;;;;;;;34.05;18.35;;;;;;;0.64;48.72;95423.13;5032000;28;20444;-61
2021/12/23 04:38:07;;;;;;;30.90;18.63;;;;;;;0.57;48.70;95409.41;5013568;28;20025;-61
2021/12/23 04:40:36;;;;;;;38.78;19.17;;;;;;;0.17;48.48;95331.72;5030082;28;20040;-62
2021/12/23 04:43:05;;;;;;;35.50;18.77;;;;;;;0.41;48.74;95363.84;5031675;28;20060;-61
2021/12/23 04:45:31;;;;;;;31.35;18.42;;;;;;;0.60;48.78;95390.59;5031921;28;20129;-61
2021/12/23 04:47:57;;;;;;;39.03;19.27;;;;;;;0.52;48.65;95389.16;5031869;28;20390;-61
2021/12/23 04:50:23;;;;;;;34.05;18.05;;;;;;;0.24;49.21;95344.66;5031131;28;20026;-61
2021/12/23 04:52:49;;;;;;;39.97;19.73;;;;;;;0.17;49.19;95330.94;5030853;28;20475;-61
2021/12/23 04:55:16;;;;;;;38.95;20.02;;;;;;;0.55;48.79;95381.84;5030373;28;20360;-61
2021/12/23 04:57:42;;;;;;;33.53;17.92;;;;;;;-0.65;48.88;95203.13;5013640;28;20478;-61
2021/12/23 05:00:12;;;;;;;34.03;18.98;;;;;;;0.08;48.96;95319.25;5030736;28;20483;-61
2021/12/23 05:02:37;;;;;;;39.75;19.67;;;;;;;0.50;49.33;95396.44;5031586;28;20071;-61
2021/12/23 05:05:04;;;;;;;39.83;19.55;;;;;;;0.38;48.88;95358.25;5031573;28;20037;-61
2021/12/23 05:07:29;;;;;;;33.45;19.10;;;;;;;0.48;48.93;95388.03;5031229;28;20175;-61
2021/12/23 05:09:55;;;;;;;33.05;18.83;;;;;;;0.10;49.08;95330.25;5028801;28;20108;-61
2021/12/23 05:12:20;;;;;;;38.35;20.08;;;;;;;-0.36;49.42;95324.97;5013113;28;20131;-62
2021/12/23 05:14:45;;;;;;;32.65;18.13;;;;;;;-0.25;50.66;95375.63;5030466;28;20743;-61
2021/12/23 05:17:11;;;;;;;34.10;19.15;;;;;;;-0.74;50.92;95327.28;5031188;28;20030;-61
2021/12/23 05:19:36;;;;;;;35.53;19.90;;;;;;;-0.73;51.44;95353.16;5012664;28;20442;-61
2021/12/23 05:22:02;;;;;;;40.70;20.67;;;;;;;-0.76;52.36;95390.19;5030356;28;20037;-60
2021/12/23 05:24:27;;;;;;;38.33;20.52;;;;;;;-0.89;52.98;95406.06;5029545;28;20080;-61
2021/12/23 05:26:53;;;;;;;42.47;21.63;;;;;;;-1.87;53.31;95262.03;5031855;28;20033;-61
2021/12/23 05:29:18;;;;;;;39.08;19.83;;;;;;;-1.41;52.89;95297.03;5030073;28;20026;-62
2021/12/23 05:31:44;;;;;;;39.72;19.85;;;;;;;-1.78;54.07;95348.56;5030889;28;20038;-62
2021/12/23 05:34:09;;;;;;;35.53;19.52;;;;;;;-2.42;58.33;95399.41;5030781;28;20029;-60
2021/12/23 05:36:35;;;;;;;40.17;20.73;;;;;;;-2.59;57.01;95320.28;5012976;28;20029;-61
2021/12/23 05:39:00;;;;;;;40.65;19.25;;;;;;;-2.75;57.06;95317.22;5010608;28;20045;-62
2021/12/23 05:41:27;;;;;;;44.72;21.27;;;;;;;-1.36;53.77;95409.38;5029273;28;20593;-64
2021/12/23 05:43:57;;;;;;;49.22;23.20;;;;;;;-1.38;53.11;95350.63;5012850;28;20556;-62
2021/12/23 05:46:23;;;;;;;47.70;21.45;;;;;;;-1.51;53.14;95322.09;5012846;28;20546;-60
2021/12/23 05:48:48;;;;;;;49.58;22.77;;;;;;;-2.25;56.62;95407.44;5012447;28;20523;-60
2021/12/23 05:51:13;;;;;;;48.08;22.35;;;;;;;-3.31;59.35;95374.56;5030142;28;20105;-61
2021/12/23 05:53:39;;;;;;;54.55;25.35;;;;;;;-2.56;58.81;95388.31;5013036;28;20124;-60
2021/12/23 05:56:05;;;;;;;55.05;24.00;;;;;;;-2.58;58.37;95403.38;5029112;28;20181;-60
2021/12/23 06:01:07;;;;;;;54.35;24.42;;;;;;;-2.17;56.80;95371.47;5046906;28;20053;-66
2021/12/23 06:03:33;;;;;;;56.38;25.67;;;;;;;-2.92;58.04;95331.78;5032299;28;20031;-66
2021/12/23 06:05:58;;;;;;;48.08;23.27;;;;;;;-3.24;59.19;95375.31;5031991;28;20033;-66
2021/12/23 06:08:23;;;;;;;50.15;23.05;;;;;;;-3.46;60.35;95361.88;5029454;28;20025;-66
2021/12/23 06:10:49;;;;;;;60.13;26.80;;;;;;;-2.86;58.94;95364.00;5028380;28;20056;-66
2021/12/23 06:13:14;;;;;;;60.63;25.33;;;;;;;-2.30;57.64;95370.81;5029912;28;20029;-66
2021/12/23 06:15:40;;;;;;;62.42;28.52;;;;;;;-1.71;57.09;95377.94;5030007;28;20033;-66
2021/12/23 06:18:05;;;;;;;52.88;25.20;;;;;;;-1.87;56.38;95402.81;5029794;28;20095;-65
2021/12/23 06:20:31;;;;;;;56.13;25.52;;;;;;;-2.59;57.70;95344.50;5029379;28;20510;-65
2021/12/23 06:22:56;;;;;;;62.50;27.17;;;;;;;-2.37;57.68;95396.97;5029082;28;20112;-65
2021/12/23 06:25:22;;;;;;;62.50;27.42;;;;;;;-2.36;57.08;95388.13;5028313;28;20032;-66
2021/12/23 06:27:47;;;;;;;63.45;28.02;;;;;;;-2.17;56.72;95373.31;5012013;28;20434;-65
2021/12/23 06:30:18;;;;;;;64.45;27.52;;;;;;;-2.20;55.71;95351.09;5028901;28;20558;-65
2021/12/23 06:32:52;;;;;;;59.92;26.90;;;;;;;-1.62;55.66;95384.44;5029776;28;20383;-65
2021/12/23 06:35:19;;;;;;;51.03;25.85;;;;;;;-1.49;54.85;95369.63;5029760;28;20040;-66
2021/12/23 06:37:44;;;;;;;60.15;26.88;;;;;;;-1.16;54.40;95395.25;5029040;28;20056;-66
2021/12/23 06:40:11;;;;;;;55.92;25.15;;;;;;;-1.29;53.59;95362.28;5027481;28;20097;-65
2021/12/23 06:42:36;;;;;;;53.33;24.83;;;;;;;-1.73;53.83;95400.84;5029266;28;20080;-66
2021/12/23 06:45:03;;;;;;;54.85;27.05;;;;;;;-1.60;54.13;95363.34;5011543;28;20033;-66
2021/12/23 06:47:29;;;;;;;54.15;25.63;;;;;;;-1.53;53.80;95324.94;5029098;28;20026;-66
2021/12/23 06:49:54;;;;;;;52.40;25.85;;;;;;;-1.21;53.79;95354.16;5028624;28;20036;-66
2021/12/23 06:52:20;;;;;;;54.15;25.65;;;;;;;-1.44;53.38;95347.06;5029220;28;20026;-65
2021/12/23 06:54:48;;;;;;;50.42;24.42;;;;;;;-1.20;53.17;95344.50;5027656;28;20026;-67
2021/12/23 06:57:14;;;;;;;47.13;23.83;;;;;;;-0.86;52.22;95369.06;5029377;28;20025;-65
2021/12/23 06:59:40;;;;;;;51.30;24.58;;;;;;;-0.66;52.28;95381.78;5028527;28;20037;-65
2021/12/23 07:02:06;;;;;;;46.10;23.40;;;;;;;-0.82;52.17;95359.72;5029592;28;20030;-65
2021/12/23 07:04:33;;;;;;;52.67;24.15;;;;;;;-1.27;52.20;95270.75;5029391;28;20649;-66
2021/12/23 07:07:09;;;;;;;42.42;21.70;;;;;;;-1.09;51.53;95300.13;5011373;28;20391;-66
2021/12/23 07:09:38;;;;;;;42.83;21.80;;;;;;;-0.46;51.40;95382.25;5026937;28;20029;-66
2021/12/23 07:12:06;;;;;;;39.85;20.80;;;;;;;-0.45;50.70;95376.00;5021339;28;20021;-66
2021/12/23 07:14:32;;;;;;;41.75;20.80;;;;;;;-0.94;50.45;95346.69;5029426;28;20036;-65
2021/12/23 07:16:57;;;;;;;50.00;21.67;;;;;;;-0.89;51.12;95362.47;5029273;28;20025;-66
2021/12/23 07:19:22;;;;;;;43.90;21.42;;;;;;;-0.89;50.90;95348.63;5028680;28;20372;-66
2021/12/23 07:21:48;;;;;;;39.58;20.85;;;;;;;-0.57;50.51;95357.69;5029173;28;20458;-65
2021/12/23 07:24:13;;;;;;;40.47;20.67;;;;;;;-0.26;50.18;95358.34;5029793;28;20043;-65
2021/12/23 07:26:38;;;;;;;39.13;21.17;;;;;;;-0.10;49.99;95383.78;5027736;28;20706;-65
2021/12/23 07:29:04;;;;;;;37.90;20.65;;;;;;;-0.97;50.35;95399.38;5028202;28;20033;-68
2021/12/23 07:31:30;;;;;;;42.38;21.33;;;;;;;-1.53;51.93;95397.97;5028709;28;20064;-64
2021/12/23 07:33:55;;;;;;;42.15;20.05;;;;;;;-2.76;54.26;95320.84;5011410;28;20025;-63
2021/12/23 07:36:22;;;;;;;41.80;20.58;;;;;;;-1.27;52.82;95385.59;5028983;28;20026;-62
2021/12/23 07:38:48;;;;;;;43.55;20.98;;;;;;;-0.73;51.79;95368.81;5029650;28;20035;-61
2021/12/23 07:41:14;;;;;;;39.17;20.80;;;;;;;-0.18;50.53;95360.59;5031077;28;20029;-60
2021/12/23 07:46:06;;;;;;;34.47;19.35;;;;;;;-2.17;53.74;95362.88;5032862;28;20030;-61
2021/12/23 07:48:31;;;;;;;35.47;19.88;;;;;;;-1.66;54.17;95413.78;5032490;28;20080;-63
2021/12/23 07:50:58;;;;;;;38.45;19.63;;;;;;;-1.18;55.62;95415.53;5032332;28;20112;-64
2021/12/23 07:53:23;;;;;;;37.92;20.95;;;;;;;0.12;52.72;95411.94;5032396;28;20117;-62
2021/12/23 07:55:49;;;;;;;32.25;18.60;;;;;;;0.19;51.10;95339.34;5012218;28;20112;-62
2021/12/23 07:58:15;;;;;;;34.38;19.60;;;;;;;0.92;50.22;95375.19;5025773;28;20068;-62
2021/12/23 08:00:41;;;;;;;36.08;20.10;;;;;;;1.62;49.98;95400.06;5032415;28;20037;-62
2021/12/23 08:03:07;;;;;;;32.17;19.17;;;;;;;1.75;48.87;95385.84;5014374;28;20531;-61
2021/12/23 08:05:33;;;;;;;29.77;18.95;;;;;;;1.72;48.27;95353.00;5032394;28;20040;-61
2021/12/23 08:08:00;;;;;;;36.70;18.98;;;;;;;1.83;47.83;95311.97;5031978;28;20056;-62
2021/12/23 08:10:25;;;;;;;39.47;20.30;;;;;;;2.52;47.42;95406.72;5030587;28;20033;-61
2021/12/23 08:12:51;;;;;;;27.52;19.05;;;;;;;1.98;46.82;95280.66;5032095;28;20033;-62
2021/12/23 08:15:16;;;;;;;37.40;20.38;;;;;;;2.56;46.65;95350.03;5032362;28;20028;-62
2021/12/23 08:17:42;;;;;;;36.97;20.38;;;;;;;2.60;46.54;95350.31;5032257;28;20044;-62
2021/12/23 08:20:09;;;;;;;31.42;18.95;;;;;;;3.04;46.38;95382.50;5031787;28;20025;-63
2021/12/23 08:22:34;;;;;;;32.20;18.40;;;;;;;3.32;46.30;95383.25;5032229;28;20486;-62
2021/12/23 08:25:00;;;;;;;32.53;20.73;;;;;;;3.34;45.55;95354.88;5031815;28;20029;-61
2021/12/23 08:27:28;;;;;;;33.47;19.52;;;;;;;3.77;45.28;95366.19;5031046;28;20642;-60
2021/12/23 08:29:54;;;;;;;29.58;19.70;;;;;;;3.95;44.79;95359.72;5031167;28;20025;-61
2021/12/23 08:32:21;;;;;;;34.70;19.58;;;;;;;4.20;44.67;95365.09;5014259;28;20036;-71
2021/12/23 08:34:46;;;;;;;25.05;17.10;;;;;;;4.31;44.37;95355.38;5031992;28;20030;-64
2021/12/23 08:37:12;;;;;;;28.52;18.10;;;;;;;4.17;44.01;95318.19;5032374;28;20040;-63
2021/12/23 08:39:42;;;;;;;23.67;16.70;;;;;;;4.36;43.59;95302.72;5029398;28;20068;-63
2021/12/23 08:42:09;;;;;;;27.10;18.20;;;;;;;4.70;42.99;95359.13;5025302;28;20033;-63
2021/12/23 08:44:36;;;;;;;25.23;17.77;;;;;;;4.64;43.27;95369.94;5031770;28;20026;-63
2021/12/23 08:47:02;;;;;;;24.75;17.02;;;;;;;4.81;43.29;95359.16;5031621;28;20037;-64
2021/12/23 08:49:27;;;;;;;28.10;17.98;;;;;;;4.64;42.90;95314.59;5029999;28;20036;-64
2021/12/23 08:51:53;;;;;;;25.77;16.65;;;;;;;5.07;42.55;95360.00;5013443;28;20033;-63
2021/12/23 08:54:18;;;;;;;24.50;15.73;;;;;;;5.34;42.64;95357.09;5031221;28;20471;-63
2021/12/23 08:56:44;;;;;;;25.58;17.55;;;;;;;5.44;41.89;95338.59;5030063;28;20036;-65
2021/12/23 08:59:09;;;;;;;29.63;17.52;;;;;;;5.66;41.56;95347.00;5030704;28;20044;-63
2021/12/23 09:01:35;;;;;;;22.33;16.45;;;;;;;5.57;41.48;95319.56;5031403;28;20658;-63
2021/12/23 09:04:01;;;;;;;21.55;15.45;;;;;;;5.69;41.29;95325.38;5031334;28;20079;-63
2021/12/23 09:06:26;;;;;;;26.77;15.95;;;;;;;5.76;41.20;95348.81;5031543;28;20389;-62
2021/12/23 09:08:53;;;;;;;26.05;16.40;;;;;;;5.65;41.41;95342.00;5030542;28;20699;-64
2021/12/23 09:11:19;;;;;;;19.35;15.00;;;;;;;5.52;41.64;95295.84;5029471;28;20101;-64
2021/12/23 09:13:44;;;;;;;21.58;16.23;;;;;;;5.85;40.58;95312.13;5013355;28;20137;-64
2021/12/23 09:16:10;;;;;;;25.00;15.55;;;;;;;6.16;41.07;95313.59;5031359;28;20105;-64
2021/12/23 09:18:35;;;;;;;20.83;15.77;;;;;;;6.24;41.39;95314.88;5030549;28;20029;-64
2021/12/23 09:21:01;;;;;;;25.65;16.45;;;;;;;6.23;41.44;95279.75;5030850;28;20021;-65
2021/12/23 09:23:26;;;;;;;21.92;15.55;;;;;;;6.47;40.79;95305.53;5030706;28;20667;-67
2021/12/23 09:25:53;;;;;;;24.23;15.75;;;;;;;6.20;40.57;95280.31;5029403;28;20049;-66
2021/12/23 09:28:31;;;;;;;32.15;16.35;;;;;;;6.50;40.88;95287.28;5030552;28;20029;-68
2021/12/23 09:33:42;;;;;;;22.00;14.38;;;;;;;6.48;40.20;95267.47;5031056;28;20091;-64
2021/12/23 09:36:08;;;;;;;17.10;12.45;;;;;;;6.98;40.47;95323.69;5030730;28;20026;-66
2021/12/23 09:38:34;;;;;;;16.15;12.93;;;;;;;6.70;40.40;95244.03;5011981;28;20022;-68
2021/12/23 09:41:12;;;;;;;23.80;13.40;;;;;;;7.09;39.32;95304.03;5028973;28;20530;-68
2021/12/23 09:43:39;;;;;;;20.90;13.48;;;;;;;7.18;39.62;95291.78;5030592;28;20089;-66
2021/12/23 09:46:08;;;;;;;13.75;12.07;;;;;;;7.51;39.56;95299.94;5030571;28;20083;-68
2021/12/23 09:48:34;;;;;;;17.92;12.07;;;;;;;7.74;39.10;95290.44;5012389;28;20060;-65
2021/12/23 09:51:02;;;;;;;18.20;11.82;;;;;;;7.86;38.46;95282.09;5029759;28;20049;-68
2021/12/23 09:53:30;;;;;;;13.73;11.30;;;;;;;7.99;38.19;95279.56;5029994;28;20072;-66
2021/12/23 09:55:57;;;;;;;14.57;11.48;;;;;;;8.05;38.18;95272.34;5029100;28;20013;-66
2021/12/23 09:58:23;;;;;;;12.43;10.32;;;;;;;8.24;37.96;95283.75;5029712;28;20124;-66
2021/12/23 10:00:49;;;;;;;14.80;10.75;;;;;;;8.46;37.78;95296.47;5029373;28;20032;-65
2021/12/23 10:03:17;;;;;;;15.15;10.98;;;;;;;8.36;37.58;95261.34;5030233;28;20672;-67
2021/12/23 10:05:43;;;;;;;14.68;10.55;;;;;;;8.51;37.35;95274.41;5030272;28;20041;-65
2021/12/23 10:08:11;;;;;;;13.63;12.13;;;;;;;8.24;37.50;95251.13;5029476;28;20029;-66
2021/12/23 10:10:44;;;;;;;13.55;9.95;;;;;;;8.53;37.63;95277.53;5028077;28;20030;-65
2021/12/23 10:38:11;;;;;;;11.73;8.82;;;;;;;9.85;36.71;95242.66;5029923;28;20447;-65
2021/12/23 10:40:40;;;;;;;12.82;10.00;;;;;;;9.74;36.12;95231.47;5008453;28;20025;-66
2021/12/23 10:43:08;;;;;;;11.18;9.02;;;;;;;9.93;36.65;95227.88;5021582;28;20047;-66
2021/12/23 10:45:41;;;;;;;9.48;8.48;;;;;;;9.97;36.40;95226.22;5011578;28;20033;-65
2021/12/23 10:48:11;;;;;;;11.93;9.02;;;;;;;10.09;36.43;95221.97;5029180;28;20025;-69
2021/12/23 10:50:46;;;;;;;11.52;9.27;;;;;;;9.88;35.31;95176.44;5011354;28;20029;-66
2021/12/23 10:53:44;;;;;;;10.50;9.38;;;;;;;10.26;35.96;95205.41;5029479;28;20025;-67
2021/12/23 10:59:09;;;;;;;13.10;8.88;;;;;;;10.68;35.77;95169.59;5028337;28;20031;-67
2021/12/23 11:01:56;;;;;;;13.95;8.80;;;;;;;10.75;35.95;95171.03;5011783;28;20453;-68
2021/12/23 11:04:22;;;;;;;9.73;8.73;;;;;;;10.95;35.71;95159.88;5001486;28;20487;-66
2021/12/23 11:06:56;;;;;;;9.68;8.65;;;;;;;10.58;34.52;95135.25;5012087;28;20021;-66
2021/12/23 11:09:38;;;;;;;10.68;9.25;;;;;;;10.90;36.04;95134.22;5028662;28;20105;-66
2021/12/23 11:41:20;;;;;;;10.20;7.00;;;;;;;12.36;34.48;95113.53;5025058;28;20036;-66
2021/12/23 11:43:49;;;;;;;9.68;7.90;;;;;;;12.50;34.48;95108.03;5032701;28;20032;-67
2021/12/23 11:46:28;;;;;;;10.00;7.88;;;;;;;12.66;34.58;95113.66;5032816;28;20021;-67
2021/12/23 11:48:56;;;;;;;9.52;7.78;;;;;;;12.77;33.94;95114.88;5032246;28;20395;-69
2021/12/23 11:51:42;;;;;;;9.63;7.60;;;;;;;12.84;34.27;95120.50;5014994;28;20017;-67
2021/12/23 11:54:13;;;;;;;9.35;7.15;;;;;;;12.78;33.38;95123.69;5032722;28;20387;-67
2021/12/23 11:56:46;;;;;;;10.30;8.32;;;;;;;12.77;33.16;95125.56;5031294;28;20036;-66
2021/12/23 11:59:14;;;;;;;9.25;8.15;;;;;;;12.60;33.30;95104.25;5013623;28;20029;-66
2021/12/23 12:01:52;;;;;;;15.82;8.80;;;;;;;12.59;33.65;95090.13;5014853;28;20120;-68
2021/12/23 12:04:30;;;;;;;13.52;8.52;;;;;;;12.24;34.13;95108.06;5032703;28;20053;-67
2021/12/23 12:06:57;;;;;;;18.95;10.98;;;;;;;12.38;34.19;95095.31;5014666;28;20109;-68
2021/12/23 12:09:26;;;;;;;16.92;9.55;;;;;;;12.63;34.21;95111.63;5031485;28;20080;-67
2021/12/23 12:12:08;;;;;;;15.45;9.02;;;;;;;12.31;33.96;95091.59;5032113;28;20014;-68
2021/12/23 12:14:36;;;;;;;15.68;9.73;;;;;;;12.67;34.54;95096.53;5032078;28;20029;-68
2021/12/23 12:17:26;;;;;;;22.33;9.90;;;;;;;12.42;34.44;95100.81;5014640;28;20029;-68
2021/12/23 12:20:07;;;;;;;19.33;10.10;;;;;;;12.07;34.75;95087.50;5031941;28;20029;-68
2021/12/23 12:22:44;;;;;;;18.63;11.38;;;;;;;12.49;35.14;95093.91;5032586;28;20044;-68
2021/12/23 12:25:22;;;;;;;17.10;10.65;;;;;;;12.42;34.35;95079.47;5013934;28;20037;-66
2021/12/23 12:27:48;;;;;;;13.25;10.88;;;;;;;12.60;34.82;95072.25;5012502;28;20028;-70
2021/12/23 12:30:17;;;;;;;14.80;9.82;;;;;;;12.21;34.74;95058.03;5013741;28;20026;-70
2021/12/23 12:32:43;;;;;;;13.90;10.10;;;;;;;11.92;35.80;95094.09;5032303;28;20032;-69
2021/12/23 12:35:19;;;;;;;15.70;9.75;;;;;;;12.26;35.51;95047.19;5014243;28;20029;-70
2021/12/23 12:37:44;;;;;;;14.60;10.00;;;;;;;12.45;35.04;95058.31;5014439;28;20021;-66